Terminal Aerodrome Forecast
Issued by NWS Tuscon, AZ

Current Version | Previous Version | Text Only | Print | Product List | Glossary On
Versions: 1 2 3 4 5 6 7 8 9 10 11 12 13 14 15 16 17
000
FTUS45 KTWC 302330
TAFTUS
TAF
KTUS 302330Z 3100/3124 16010KT P6SM VCSH SCT090 BKN150
     FM310300 20008KT P6SM SCT090 BKN200
     FM310600 15006KT P6SM SCT120 SCT200
     FM311900 24008KT P6SM SCT080 BKN200=

USA.gov is the U.S. government's official web portal to all federal, state and local government web resources and services.